createdAt,value
2023-09-27T00:00:56.137Z,61.65
2023-09-27T00:01:59.749Z,61.64
2023-09-27T00:03:02.636Z,61.68
2023-09-27T00:04:06.924Z,61.55
2023-09-27T00:05:10.221Z,61.82
2023-09-27T00:06:13.678Z,61.40
2023-09-27T00:07:16.637Z,61.35
2023-09-27T00:08:20.468Z,61.26
2023-09-27T00:09:24.117Z,61.15
2023-09-27T00:10:28.229Z,61.05
2023-09-27T00:11:30.437Z,60.71
2023-09-27T00:12:34.182Z,61.16
2023-09-27T00:13:36.341Z,61.77
2023-09-27T00:14:39.453Z,61.54
2023-09-27T00:15:41.632Z,61.34
2023-09-27T00:16:44.816Z,61.43
2023-09-27T00:17:48.218Z,61.53
2023-09-27T00:18:51.501Z,61.62
2023-09-27T00:19:53.733Z,61.54
2023-09-27T00:20:56.885Z,61.38
2023-09-27T00:21:59.029Z,61.29
2023-09-27T00:23:02.218Z,61.55
2023-09-27T00:24:04.727Z,61.81
2023-09-27T00:25:12.781Z,61.63
2023-09-27T00:26:15.049Z,61.65
2023-09-27T00:27:18.246Z,61.66
2023-09-27T00:28:20.394Z,61.88
2023-09-27T00:29:23.557Z,61.93
2023-09-27T00:30:25.718Z,61.89
2023-09-27T00:31:29.126Z,62.05
2023-09-27T00:32:31.620Z,62.25
2023-09-27T00:33:34.853Z,62.53
2023-09-27T00:34:37.055Z,62.56
2023-09-27T00:35:40.169Z,62.53
2023-09-27T00:36:42.367Z,62.13
2023-09-27T00:37:45.453Z,62.15
2023-09-27T00:38:47.613Z,62.12
2023-09-27T00:39:51.027Z,62.19
2023-09-27T00:40:54.622Z,62.18
2023-09-27T00:41:57.885Z,62.28
2023-09-27T00:43:00.010Z,62.42
2023-09-27T00:44:03.231Z,62.54
2023-09-27T00:45:08.239Z,62.62
2023-09-27T00:46:15.231Z,62.77
2023-09-27T00:47:17.749Z,62.64
2023-09-27T00:48:21.560Z,62.62
2023-09-27T00:49:23.766Z,62.87
2023-09-27T00:50:26.958Z,62.77
2023-09-27T00:51:29.834Z,62.94
2023-09-27T00:52:33.294Z,63.10
2023-09-27T00:53:36.328Z,63.00
2023-09-27T00:54:39.427Z,63.01
2023-09-27T00:55:42.432Z,63.15
2023-09-27T00:56:48.820Z,63.29
2023-09-27T00:57:52.021Z,63.09
2023-09-27T00:58:56.593Z,63.06
2023-09-27T00:59:59.651Z,63.01
2023-09-27T01:01:03.342Z,63.03
2023-09-27T01:02:07.346Z,63.13
2023-09-27T01:03:10.767Z,63.37
2023-09-27T01:04:14.639Z,63.40
2023-09-27T01:05:19.626Z,63.27
2023-09-27T01:06:22.113Z,63.38
2023-09-27T01:07:25.025Z,63.27
2023-09-27T01:08:28.240Z,63.20
2023-09-27T01:09:32.942Z,63.22
2023-09-27T01:10:36.718Z,63.31
2023-09-27T01:11:39.840Z,63.24
2023-09-27T01:12:44.534Z,63.30
2023-09-27T01:13:47.027Z,63.32
2023-09-27T01:14:51.966Z,63.29
2023-09-27T01:15:54.152Z,63.22
2023-09-27T01:16:57.361Z,63.38
2023-09-27T01:18:00.985Z,63.58
2023-09-27T01:19:04.195Z,63.50
2023-09-27T01:20:07.727Z,63.60
2023-09-27T01:21:11.070Z,63.78
2023-09-27T01:22:13.226Z,63.55
2023-09-27T01:23:17.804Z,63.76
2023-09-27T01:24:20.193Z,63.96
2023-09-27T01:25:23.518Z,63.78
2023-09-27T01:26:27.034Z,63.66
2023-09-27T01:27:30.603Z,63.79
2023-09-27T01:28:33.096Z,63.93
2023-09-27T01:29:36.253Z,63.88
2023-09-27T01:30:39.302Z,63.70
2023-09-27T01:31:42.638Z,63.93
2023-09-27T01:32:44.909Z,64.02
2023-09-27T01:33:48.121Z,64.07
2023-09-27T01:34:50.300Z,64.13
2023-09-27T01:35:55.282Z,64.13
2023-09-27T01:36:58.972Z,64.08
2023-09-27T01:38:02.479Z,64.06
2023-09-27T01:39:08.269Z,64.26
2023-09-27T01:40:15.890Z,64.16
2023-09-27T01:41:19.253Z,64.05
2023-09-27T01:42:22.423Z,64.17
2023-09-27T01:43:24.666Z,64.30
2023-09-27T01:44:27.891Z,64.29
2023-09-27T01:45:31.344Z,64.15
2023-09-27T01:46:34.497Z,63.92
2023-09-27T01:47:36.686Z,63.89
2023-09-27T01:48:40.669Z,63.99
2023-09-27T01:49:43.282Z,64.21
2023-09-27T01:50:46.600Z,64.21
2023-09-27T01:51:50.291Z,64.03
2023-09-27T01:52:53.514Z,64.19
2023-09-27T01:53:55.701Z,64.18
2023-09-27T01:55:00.276Z,64.01
2023-09-27T01:56:03.822Z,63.79
2023-09-27T01:57:07.003Z,63.68
2023-09-27T01:58:09.334Z,63.85
2023-09-27T01:59:12.592Z,63.75
2023-09-27T02:00:16.344Z,64.05
2023-09-27T02:01:19.556Z,63.85
2023-09-27T02:02:21.798Z,63.93
2023-09-27T02:03:25.121Z,63.90
2023-09-27T02:04:27.316Z,63.75
2023-09-27T02:05:31.859Z,63.72
2023-09-27T02:06:34.163Z,63.75
2023-09-27T02:07:39.354Z,63.63
2023-09-27T02:08:41.570Z,63.66
2023-09-27T02:09:44.735Z,63.66
2023-09-27T02:10:50.788Z,63.56
2023-09-27T02:11:53.909Z,63.46
2023-09-27T02:12:56.108Z,63.50
2023-09-27T02:13:59.422Z,63.54
2023-09-27T02:15:01.709Z,63.43
2023-09-27T02:16:05.011Z,63.68
2023-09-27T02:17:09.101Z,63.75
2023-09-27T02:18:12.889Z,63.74
2023-09-27T02:19:15.139Z,63.69
2023-09-27T02:20:20.207Z,63.62
2023-09-27T02:21:22.482Z,63.65
2023-09-27T02:22:25.615Z,63.76
2023-09-27T02:23:28.480Z,63.76
2023-09-27T02:24:30.742Z,63.73
2023-09-27T02:25:34.020Z,63.77
2023-09-27T02:26:37.541Z,63.85
2023-09-27T02:27:40.644Z,63.95
2023-09-27T02:28:44.371Z,63.92
2023-09-27T02:29:46.525Z,63.78
2023-09-27T02:30:49.642Z,63.78
2023-09-27T02:31:51.855Z,63.85
2023-09-27T02:32:55.172Z,64.03
2023-09-27T02:33:58.033Z,64.04
2023-09-27T02:35:00.546Z,63.95
2023-09-27T02:36:03.692Z,63.96
2023-09-27T02:37:06.273Z,64.13
2023-09-27T02:38:10.317Z,64.11
2023-09-27T02:39:12.597Z,64.03
2023-09-27T02:40:15.869Z,64.06
2023-09-27T02:41:18.054Z,64.16
2023-09-27T02:42:22.631Z,64.16
2023-09-27T02:43:24.869Z,64.22
2023-09-27T02:44:28.536Z,64.24
2023-09-27T02:45:30.706Z,64.35
2023-09-27T02:46:33.959Z,64.46
2023-09-27T02:47:36.718Z,64.34
2023-09-27T02:48:40.012Z,64.36
2023-09-27T02:49:42.220Z,64.38
2023-09-27T02:50:49.949Z,64.50
2023-09-27T02:51:53.206Z,64.31
2023-09-27T02:52:56.409Z,64.40
2023-09-27T02:53:58.639Z,64.50
2023-09-27T02:55:00.872Z,64.60
2023-09-27T02:56:06.357Z,64.63
2023-09-27T02:57:08.728Z,64.55
2023-09-27T02:58:13.254Z,64.50
2023-09-27T02:59:15.501Z,64.55
2023-09-27T03:00:19.921Z,64.58
2023-09-27T03:01:22.490Z,64.64
2023-09-27T03:02:26.048Z,64.84
2023-09-27T03:03:28.982Z,64.83
2023-09-27T03:04:33.057Z,64.85
2023-09-27T03:05:36.393Z,64.96
2023-09-27T03:06:40.882Z,65.02
2023-09-27T03:07:45.924Z,64.98
2023-09-27T03:08:49.474Z,65.16
2023-09-27T03:09:51.836Z,65.10
2023-09-27T03:10:54.980Z,65.17
2023-09-27T03:11:57.109Z,65.34
2023-09-27T03:13:00.185Z,65.43
2023-09-27T03:14:04.884Z,65.47
2023-09-27T03:15:12.689Z,65.50
2023-09-27T03:16:16.421Z,65.56
2023-09-27T03:17:18.586Z,65.63
2023-09-27T03:18:20.806Z,65.65
2023-09-27T03:19:24.211Z,65.82
2023-09-27T03:20:26.513Z,66.03
2023-09-27T03:21:30.832Z,65.97
2023-09-27T03:22:33.037Z,65.98
2023-09-27T03:23:36.242Z,65.94
2023-09-27T03:24:39.603Z,65.96
2023-09-27T03:25:42.805Z,65.96
2023-09-27T03:26:44.941Z,66.03
2023-09-27T03:27:48.811Z,66.15
2023-09-27T03:28:51.941Z,66.11
2023-09-27T03:29:57.091Z,66.15
2023-09-27T03:30:59.227Z,66.27
2023-09-27T03:32:02.482Z,66.24
2023-09-27T03:33:04.929Z,66.28
2023-09-27T03:34:08.085Z,66.22
2023-09-27T03:35:10.692Z,66.29
2023-09-27T03:36:13.978Z,66.35
2023-09-27T03:37:17.093Z,66.27
2023-09-27T03:38:19.251Z,66.21
2023-09-27T03:39:23.615Z,66.24
2023-09-27T03:40:25.847Z,66.44
2023-09-27T03:41:29.043Z,66.41
2023-09-27T03:42:31.333Z,66.48
2023-09-27T03:43:34.552Z,66.48
2023-09-27T03:44:36.977Z,66.53
2023-09-27T03:45:41.522Z,66.52
2023-09-27T03:46:44.878Z,66.76
2023-09-27T03:47:49.336Z,67.02
2023-09-27T03:48:51.942Z,66.88
2023-09-27T03:49:55.270Z,66.83
2023-09-27T03:50:57.512Z,66.76
2023-09-27T03:52:00.620Z,66.62
2023-09-27T03:53:02.868Z,66.46
2023-09-27T03:54:06.515Z,66.63
2023-09-27T03:55:09.249Z,66.51
2023-09-27T03:56:12.386Z,66.42
2023-09-27T03:57:14.526Z,66.52
2023-09-27T03:58:17.725Z,66.47
2023-09-27T03:59:20.227Z,66.39
2023-09-27T04:00:23.650Z,66.44
2023-09-27T04:01:27.320Z,66.43
2023-09-27T04:02:32.371Z,66.53
2023-09-27T04:03:34.735Z,66.78
2023-09-27T04:04:37.874Z,66.60
2023-09-27T04:05:40.221Z,66.51
2023-09-27T04:06:43.755Z,66.58
2023-09-27T04:07:45.922Z,66.48
2023-09-27T04:08:49.056Z,66.46
2023-09-27T04:09:51.273Z,66.49
2023-09-27T04:10:54.426Z,66.57
2023-09-27T04:11:56.973Z,66.60
2023-09-27T04:13:00.113Z,66.39
2023-09-27T04:14:02.456Z,66.44
2023-09-27T04:15:08.041Z,66.47
2023-09-27T04:16:11.252Z,66.44
2023-09-27T04:17:14.812Z,66.58
2023-09-27T04:18:18.088Z,66.67
2023-09-27T04:19:20.397Z,67.31
2023-09-27T04:20:24.186Z,66.57
2023-09-27T04:21:26.438Z,66.51
2023-09-27T04:22:29.789Z,66.41
2023-09-27T04:23:32.020Z,66.18
2023-09-27T04:24:35.161Z,66.22
2023-09-27T04:25:37.347Z,66.12
2023-09-27T04:26:40.534Z,66.22
2023-09-27T04:27:44.403Z,66.32
2023-09-27T04:28:47.627Z,66.39
2023-09-27T04:29:51.884Z,66.16
2023-09-27T04:30:55.072Z,66.42
2023-09-27T04:31:57.955Z,66.26
2023-09-27T04:33:02.513Z,66.25
2023-09-27T04:34:05.799Z,66.08
2023-09-27T04:35:10.818Z,66.02
2023-09-27T04:36:16.891Z,66.00
2023-09-27T04:37:20.000Z,66.01
2023-09-27T04:38:22.590Z,66.00
2023-09-27T04:39:28.471Z,66.11
2023-09-27T04:40:30.658Z,66.21
2023-09-27T04:41:34.414Z,66.25
2023-09-27T04:42:36.674Z,66.31
2023-09-27T04:43:39.826Z,66.27
2023-09-27T04:44:42.088Z,66.36
2023-09-27T04:45:45.380Z,66.31
2023-09-27T04:46:47.602Z,66.43
2023-09-27T04:47:51.105Z,66.68
2023-09-27T04:48:54.839Z,66.67
2023-09-27T04:49:58.165Z,66.53
2023-09-27T04:51:00.730Z,66.45
2023-09-27T04:52:03.924Z,66.53
2023-09-27T04:53:06.425Z,66.50
2023-09-27T04:54:09.580Z,66.50
2023-09-27T04:55:13.905Z,66.57
2023-09-27T04:56:17.271Z,66.53
2023-09-27T04:57:21.013Z,66.49
2023-09-27T04:58:24.302Z,66.71
2023-09-27T04:59:26.583Z,66.78
2023-09-27T05:00:29.991Z,66.56
2023-09-27T05:01:32.261Z,67.28
2023-09-27T05:02:35.603Z,66.95
2023-09-27T05:03:39.060Z,67.06
2023-09-27T05:04:43.635Z,67.07
2023-09-27T05:05:45.787Z,66.72
2023-09-27T05:06:49.757Z,67.06
2023-09-27T05:07:52.079Z,66.77
2023-09-27T05:08:56.001Z,66.36
2023-09-27T05:09:58.204Z,66.50
2023-09-27T05:11:01.364Z,66.52
2023-09-27T05:12:04.625Z,66.31
2023-09-27T05:13:07.773Z,66.38
2023-09-27T05:14:10.113Z,66.49
2023-09-27T05:15:13.308Z,66.61
2023-09-27T05:16:15.988Z,66.56
2023-09-27T05:17:19.280Z,66.43
2023-09-27T05:18:23.646Z,66.31
2023-09-27T05:19:26.898Z,66.19
2023-09-27T05:20:30.542Z,66.80
2023-09-27T05:21:33.666Z,66.29
2023-09-27T05:22:36.080Z,66.64
2023-09-27T05:23:39.304Z,66.00
2023-09-27T05:24:41.525Z,66.16
2023-09-27T05:25:45.212Z,66.02
2023-09-27T05:26:47.488Z,65.93
2023-09-27T05:27:50.679Z,65.91
2023-09-27T05:28:53.049Z,66.29
2023-09-27T05:29:55.598Z,65.99
2023-09-27T05:30:58.855Z,65.91
2023-09-27T05:32:01.248Z,65.68
2023-09-27T05:33:05.537Z,65.72
2023-09-27T05:34:08.335Z,65.93
2023-09-27T05:35:12.159Z,65.66
2023-09-27T05:36:15.982Z,65.72
2023-09-27T05:37:19.148Z,65.63
2023-09-27T05:38:24.554Z,66.00
2023-09-27T05:39:28.006Z,65.39
2023-09-27T05:40:30.240Z,65.39
2023-09-27T05:41:33.510Z,65.37
2023-09-27T05:42:36.710Z,65.51
2023-09-27T05:43:39.934Z,65.82
2023-09-27T05:44:42.095Z,65.20
2023-09-27T05:45:47.511Z,65.23
2023-09-27T05:46:49.796Z,65.19
2023-09-27T05:47:52.140Z,65.29
2023-09-27T05:48:56.033Z,65.38
2023-09-27T05:49:58.668Z,65.54
2023-09-27T05:51:01.037Z,65.33
2023-09-27T05:52:06.805Z,65.36
2023-09-27T05:53:09.109Z,65.36
2023-09-27T05:54:12.374Z,65.20
2023-09-27T05:55:15.695Z,65.45
2023-09-27T05:56:18.942Z,65.43
2023-09-27T05:57:22.804Z,65.17
2023-09-27T05:58:25.005Z,65.10
2023-09-27T05:59:28.196Z,65.18
2023-09-27T06:00:38.828Z,65.27
2023-09-27T06:01:47.674Z,65.33
2023-09-27T06:02:49.896Z,65.49
2023-09-27T06:03:53.195Z,65.30
2023-09-27T06:04:55.415Z,65.61
2023-09-27T06:05:57.789Z,65.52
2023-09-27T06:07:01.029Z,65.56
2023-09-27T06:08:05.019Z,65.75
2023-09-27T06:09:10.465Z,65.97
2023-09-27T06:10:12.686Z,65.84
2023-09-27T06:11:15.859Z,65.89
2023-09-27T06:12:18.087Z,65.81
2023-09-27T06:13:21.348Z,66.09
2023-09-27T06:14:23.667Z,66.30
2023-09-27T06:15:27.415Z,66.24
2023-09-27T06:16:29.754Z,66.30
2023-09-27T06:17:32.251Z,66.49
2023-09-27T06:18:35.525Z,66.37
2023-09-27T06:19:38.807Z,66.45
2023-09-27T06:20:42.391Z,66.38
2023-09-27T06:21:44.600Z,66.42
2023-09-27T06:22:50.038Z,66.77
2023-09-27T06:23:53.860Z,66.95
2023-09-27T06:24:57.045Z,66.80
2023-09-27T06:25:59.252Z,67.06
2023-09-27T06:27:02.548Z,67.15
2023-09-27T06:28:05.575Z,67.30
2023-09-27T06:29:10.295Z,67.42
2023-09-27T06:30:14.000Z,67.44
2023-09-27T06:31:17.213Z,67.36
2023-09-27T06:32:19.668Z,67.32
2023-09-27T06:33:23.010Z,67.57
2023-09-27T06:34:25.380Z,67.29
2023-09-27T06:35:28.705Z,67.39
2023-09-27T06:36:35.696Z,67.20
2023-09-27T06:37:39.052Z,67.23
2023-09-27T06:38:42.467Z,67.58
2023-09-27T06:39:48.450Z,67.56
2023-09-27T06:40:50.666Z,67.28
2023-09-27T06:41:54.097Z,67.30
2023-09-27T06:42:56.913Z,67.46
2023-09-27T06:44:01.731Z,66.92
2023-09-27T06:45:05.278Z,66.79
2023-09-27T06:46:11.764Z,67.03
2023-09-27T06:47:14.243Z,67.08
2023-09-27T06:48:19.772Z,67.08
2023-09-27T06:49:21.948Z,66.93
2023-09-27T06:50:25.249Z,67.04
2023-09-27T06:51:27.915Z,66.94
2023-09-27T06:52:31.392Z,67.18
2023-09-27T06:53:34.246Z,67.19
2023-09-27T06:54:37.717Z,67.13
2023-09-27T06:55:41.289Z,67.22
2023-09-27T06:56:44.724Z,66.83
2023-09-27T06:57:49.001Z,66.66
2023-09-27T06:58:52.700Z,66.64
2023-09-27T06:59:55.052Z,66.25
2023-09-27T07:00:58.279Z,66.64
2023-09-27T07:02:00.709Z,66.15
2023-09-27T07:03:04.307Z,66.43
2023-09-27T07:04:07.342Z,66.67
2023-09-27T07:05:10.171Z,66.24
2023-09-27T07:06:13.444Z,65.89
2023-09-27T07:07:15.636Z,65.71
2023-09-27T07:08:18.991Z,65.50
2023-09-27T07:09:22.075Z,65.16
2023-09-27T07:10:25.754Z,64.71
2023-09-27T07:11:29.377Z,64.25
2023-09-27T07:12:32.622Z,64.40
2023-09-27T07:13:35.601Z,64.34
2023-09-27T07:14:38.859Z,63.69
2023-09-27T07:15:41.196Z,63.97
2023-09-27T07:16:58.524Z,63.97
2023-09-27T07:18:05.259Z,64.09
2023-09-27T07:19:10.330Z,62.62
2023-09-27T07:20:22.358Z,63.10
2023-09-27T07:21:26.423Z,62.94
2023-09-27T07:22:32.392Z,62.93
2023-09-27T07:23:35.624Z,63.12
2023-09-27T07:24:37.836Z,62.30
2023-09-27T07:25:40.102Z,61.79
2023-09-27T07:26:48.342Z,61.76
2023-09-27T07:27:51.268Z,61.99
2023-09-27T07:28:54.573Z,61.88
2023-09-27T07:29:56.903Z,61.95
2023-09-27T07:31:00.255Z,61.82
2023-09-27T07:32:11.462Z,61.36
2023-09-27T07:33:18.765Z,60.97
2023-09-27T07:34:21.534Z,60.89
2023-09-27T07:35:28.679Z,60.90
2023-09-27T07:36:31.061Z,61.00
2023-09-27T07:37:35.834Z,61.07
2023-09-27T07:38:41.079Z,61.10
2023-09-27T07:39:45.052Z,60.76
2023-09-27T07:40:48.430Z,60.82
2023-09-27T07:41:54.041Z,60.63
2023-09-27T07:42:56.259Z,60.85
2023-09-27T07:44:00.151Z,61.95
2023-09-27T07:45:03.108Z,61.15
2023-09-27T07:46:08.527Z,60.38
2023-09-27T07:47:11.572Z,60.64
2023-09-27T07:48:14.969Z,61.04
2023-09-27T07:49:17.173Z,60.30
2023-09-27T07:50:20.902Z,60.31
2023-09-27T07:51:24.234Z,61.00
2023-09-27T07:52:27.435Z,60.59
2023-09-27T07:53:29.798Z,60.73
2023-09-27T07:54:34.574Z,61.10
2023-09-27T07:55:47.672Z,60.82
2023-09-27T07:56:54.543Z,60.83
2023-09-27T07:57:59.404Z,59.86
2023-09-27T07:59:02.644Z,59.96
2023-09-27T08:00:10.803Z,59.75
2023-09-27T08:01:14.150Z,59.05
2023-09-27T08:02:16.352Z,59.09
2023-09-27T08:03:20.949Z,59.12
2023-09-27T08:04:23.480Z,59.87
2023-09-27T08:05:26.908Z,59.71
2023-09-27T08:06:29.207Z,59.46
2023-09-27T08:07:32.405Z,58.87
2023-09-27T08:08:34.628Z,58.94
2023-09-27T08:10:44.747Z,58.64
2023-09-27T08:11:48.221Z,58.52
2023-09-27T08:12:52.111Z,58.62
2023-09-27T08:13:56.034Z,58.83
2023-09-27T08:14:58.316Z,58.21
2023-09-27T08:16:01.435Z,58.51
2023-09-27T08:17:04.258Z,58.07
2023-09-27T08:18:08.165Z,57.74
2023-09-27T08:19:10.595Z,57.31
2023-09-27T08:20:13.449Z,57.21
2023-09-27T08:21:16.769Z,57.72
2023-09-27T08:22:18.958Z,57.49
2023-09-27T08:23:22.174Z,57.41
2023-09-27T08:24:24.601Z,57.16
2023-09-27T08:25:26.832Z,57.41
2023-09-27T08:26:30.474Z,57.43
2023-09-27T08:27:32.903Z,56.96
2023-09-27T08:28:38.829Z,56.94
2023-09-27T08:29:41.141Z,56.89
2023-09-27T08:30:44.484Z,56.88
2023-09-27T08:31:46.773Z,56.49
2023-09-27T08:32:50.331Z,56.56
2023-09-27T08:33:52.626Z,57.07
2023-09-27T08:34:55.961Z,56.77
2023-09-27T08:36:00.511Z,56.62
2023-09-27T08:37:04.779Z,56.25
2023-09-27T08:38:07.266Z,55.99
2023-09-27T08:39:10.829Z,55.45
2023-09-27T08:40:14.668Z,54.35
2023-09-27T08:41:20.097Z,54.40
2023-09-27T08:42:23.526Z,54.59
2023-09-27T08:43:28.194Z,54.91
2023-09-27T08:44:32.510Z,54.71
2023-09-27T08:45:39.523Z,55.02
2023-09-27T08:46:42.210Z,55.35
2023-09-27T08:47:47.540Z,55.41
2023-09-27T08:48:49.922Z,55.66
2023-09-27T08:49:53.943Z,55.25
2023-09-27T08:50:56.653Z,55.04
2023-09-27T08:52:00.187Z,54.35
2023-09-27T08:53:02.568Z,54.49
2023-09-27T08:54:05.711Z,54.01
2023-09-27T08:55:08.743Z,53.91
2023-09-27T08:56:13.285Z,53.59
2023-09-27T08:57:16.067Z,53.40
2023-09-27T08:58:20.314Z,53.93
2023-09-27T08:59:22.885Z,53.21
2023-09-27T09:00:28.353Z,53.30
2023-09-27T09:01:34.270Z,53.29
2023-09-27T09:02:37.919Z,53.03
2023-09-27T09:03:42.370Z,52.94
2023-09-27T09:04:45.708Z,53.17
2023-09-27T09:05:50.168Z,52.84
2023-09-27T09:06:53.720Z,52.32
2023-09-27T09:07:56.869Z,52.77
2023-09-27T09:09:11.642Z,53.04
2023-09-27T09:10:14.845Z,52.98
2023-09-27T09:11:18.907Z,52.82
2023-09-27T09:12:21.122Z,52.90
2023-09-27T09:13:24.466Z,52.28
2023-09-27T09:14:38.838Z,52.55
2023-09-27T09:15:48.328Z,52.53
2023-09-27T09:16:52.505Z,52.28
2023-09-27T09:17:58.987Z,50.80
2023-09-27T09:19:29.290Z,50.83
2023-09-27T09:20:50.631Z,51.47
2023-09-27T09:21:58.330Z,50.51
2023-09-27T09:23:04.920Z,50.31
2023-09-27T09:24:21.563Z,49.57
2023-09-27T09:25:23.989Z,49.23
2023-09-27T09:26:28.910Z,48.46
2023-09-27T09:27:33.716Z,48.57
2023-09-27T09:28:37.675Z,48.68
2023-09-27T09:29:47.212Z,49.25
2023-09-27T09:30:51.787Z,49.34
2023-09-27T09:31:57.875Z,49.08
2023-09-27T09:33:00.242Z,49.11
2023-09-27T09:34:05.573Z,48.05
2023-09-27T09:35:10.325Z,47.16
2023-09-27T09:36:13.545Z,46.45
2023-09-27T09:37:20.119Z,45.57
2023-09-27T09:38:27.771Z,45.77
2023-09-27T09:39:30.053Z,46.28
2023-09-27T09:40:35.287Z,46.32
2023-09-27T09:41:47.611Z,47.09
2023-09-27T09:42:52.406Z,47.35
2023-09-27T09:43:54.874Z,46.21
2023-09-27T09:45:01.470Z,46.38
2023-09-27T09:46:09.351Z,46.60
2023-09-27T09:47:15.532Z,46.91
2023-09-27T09:48:18.765Z,45.34
2023-09-27T09:49:24.119Z,43.79
2023-09-27T09:50:30.736Z,44.53
2023-09-27T09:51:35.573Z,44.30
2023-09-27T09:52:40.258Z,43.74
2023-09-27T09:53:44.155Z,43.45
2023-09-27T09:54:51.232Z,43.80
2023-09-27T09:56:27.878Z,44.02
2023-09-27T09:57:35.075Z,44.02
2023-09-27T09:58:49.920Z,44.45
2023-09-27T10:00:02.304Z,43.64
2023-09-27T10:01:07.661Z,43.45
2023-09-27T10:02:20.707Z,42.91
2023-09-27T10:03:24.554Z,42.61
2023-09-27T10:04:28.041Z,42.35
2023-09-27T10:05:39.520Z,42.59
2023-09-27T10:06:49.220Z,42.95
2023-09-27T10:07:53.704Z,43.97
2023-09-27T10:08:56.035Z,42.44
2023-09-27T10:09:59.381Z,41.77
2023-09-27T10:11:04.969Z,41.97
2023-09-27T10:12:08.415Z,41.60
2023-09-27T10:13:11.596Z,42.37
2023-09-27T10:14:16.816Z,42.78
2023-09-27T10:15:21.756Z,43.05
2023-09-27T10:16:26.782Z,42.86
2023-09-27T10:17:31.259Z,42.49
2023-09-27T10:18:38.947Z,43.05
2023-09-27T10:19:41.254Z,43.36
2023-09-27T10:21:02.482Z,42.69
2023-09-27T10:22:07.360Z,42.69
2023-09-27T10:23:11.943Z,42.79
2023-09-27T10:24:28.299Z,42.35
2023-09-27T10:25:37.011Z,42.57
2023-09-27T10:26:40.636Z,41.94
2023-09-27T10:28:09.577Z,41.83
2023-09-27T10:29:16.883Z,42.08
2023-09-27T10:30:19.351Z,41.27
2023-09-27T10:31:21.606Z,40.71
2023-09-27T10:32:26.476Z,39.65
2023-09-27T10:33:32.573Z,40.28
2023-09-27T10:35:08.974Z,40.54
2023-09-27T10:36:32.319Z,41.25
2023-09-27T10:37:59.991Z,41.43
2023-09-27T10:39:06.384Z,42.79
2023-09-27T10:40:21.988Z,41.45
2023-09-27T10:41:45.989Z,40.71
2023-09-27T10:42:48.658Z,39.60
2023-09-27T10:43:52.802Z,39.87
2023-09-27T10:44:56.919Z,40.00
2023-09-27T10:46:01.296Z,40.16
2023-09-27T10:47:05.542Z,40.13
2023-09-27T10:48:21.168Z,39.96
2023-09-27T10:49:27.812Z,41.24
2023-09-27T10:50:32.294Z,40.20
2023-09-27T10:51:34.843Z,40.10
2023-09-27T10:52:38.190Z,40.20
2023-09-27T10:53:41.359Z,39.91
2023-09-27T10:54:43.777Z,38.79
2023-09-27T10:55:47.156Z,39.18
2023-09-27T10:56:54.046Z,38.42
2023-09-27T10:57:57.916Z,38.21
2023-09-27T10:59:00.193Z,38.90
2023-09-27T11:00:10.737Z,39.18
2023-09-27T11:01:13.174Z,39.67
2023-09-27T11:02:16.343Z,39.00
2023-09-27T11:03:20.439Z,39.28
2023-09-27T11:04:23.487Z,39.47
2023-09-27T11:05:27.188Z,39.69
2023-09-27T11:06:29.938Z,38.48
2023-09-27T11:07:49.262Z,37.58
2023-09-27T11:08:51.651Z,37.71
2023-09-27T11:09:55.188Z,37.31
2023-09-27T11:10:58.710Z,38.50
2023-09-27T11:12:02.091Z,38.90
2023-09-27T11:13:12.061Z,39.56
2023-09-27T11:14:15.680Z,39.42
2023-09-27T11:15:24.135Z,39.38
2023-09-27T11:16:39.010Z,39.14
2023-09-27T11:17:41.331Z,39.22
2023-09-27T11:18:47.112Z,39.23
2023-09-27T11:19:49.804Z,38.79
2023-09-27T11:20:55.408Z,39.10
2023-09-27T11:21:57.640Z,39.42
2023-09-27T11:23:00.963Z,39.46
2023-09-27T11:24:05.431Z,39.48
2023-09-27T11:25:31.990Z,38.91
2023-09-27T11:26:35.912Z,38.80
2023-09-27T11:27:44.098Z,38.08
2023-09-27T11:28:46.457Z,37.09
2023-09-27T11:29:53.051Z,37.00
2023-09-27T11:30:58.202Z,37.20
2023-09-27T11:32:01.730Z,37.05
2023-09-27T11:33:06.739Z,36.72
2023-09-27T11:34:16.372Z,38.16
2023-09-27T11:35:20.114Z,38.51
2023-09-27T11:36:23.349Z,36.95
2023-09-27T11:37:26.352Z,36.17
2023-09-27T11:38:32.254Z,35.98
2023-09-27T11:39:51.328Z,35.52
2023-09-27T11:40:55.180Z,36.64
2023-09-27T11:41:59.113Z,36.48
2023-09-27T11:43:04.111Z,37.33
2023-09-27T11:44:19.202Z,37.44
2023-09-27T11:45:22.409Z,37.31
2023-09-27T11:46:28.385Z,37.23
2023-09-27T11:47:32.778Z,37.07
2023-09-27T11:48:37.720Z,36.70
2023-09-27T11:49:42.534Z,36.58
2023-09-27T11:50:44.931Z,36.70
2023-09-27T11:51:49.124Z,36.68
2023-09-27T11:52:51.626Z,37.06
2023-09-27T11:53:55.499Z,36.20
2023-09-27T11:54:57.954Z,35.43
2023-09-27T11:56:02.313Z,35.06
2023-09-27T11:57:04.522Z,35.45
2023-09-27T11:58:09.576Z,36.00
2023-09-27T11:59:12.006Z,36.32
2023-09-27T12:00:17.155Z,37.14
2023-09-27T12:01:21.047Z,36.81
2023-09-27T12:02:28.194Z,37.31
2023-09-27T12:03:32.915Z,36.94
2023-09-27T12:04:35.560Z,37.38
2023-09-27T12:05:41.216Z,36.36
2023-09-27T12:06:43.794Z,36.48
2023-09-27T12:07:47.137Z,36.57
2023-09-27T12:08:50.034Z,36.29
2023-09-27T12:09:53.281Z,36.18
2023-09-27T12:10:55.544Z,36.01
2023-09-27T12:11:59.208Z,36.83
2023-09-27T12:13:01.893Z,36.99
2023-09-27T12:14:06.822Z,36.27
2023-09-27T12:15:09.645Z,35.33
2023-09-27T12:16:12.949Z,35.54
2023-09-27T12:17:18.769Z,36.06
2023-09-27T12:18:22.795Z,36.06
2023-09-27T12:19:24.947Z,36.33
2023-09-27T12:20:39.756Z,36.41
2023-09-27T12:21:45.321Z,36.69
2023-09-27T12:22:48.531Z,37.41
2023-09-27T12:23:50.795Z,37.57
2023-09-27T12:24:53.975Z,35.99
2023-09-27T12:25:56.984Z,36.37
2023-09-27T12:27:00.811Z,36.99
2023-09-27T12:28:04.672Z,36.11
2023-09-27T12:29:08.603Z,36.12
2023-09-27T12:30:11.495Z,36.41
2023-09-27T12:31:15.696Z,36.39
2023-09-27T12:32:18.986Z,35.22
2023-09-27T12:33:23.035Z,35.39
2023-09-27T12:34:25.569Z,35.87
2023-09-27T12:35:28.876Z,35.89
2023-09-27T12:36:31.007Z,35.01
2023-09-27T12:37:36.624Z,35.47
2023-09-27T12:38:38.922Z,35.70
2023-09-27T12:39:45.210Z,35.62
2023-09-27T12:40:48.020Z,36.19
2023-09-27T12:41:51.334Z,36.66
2023-09-27T12:42:53.643Z,36.07
2023-09-27T12:43:57.573Z,35.80
2023-09-27T12:45:00.199Z,35.41
2023-09-27T12:46:03.747Z,36.12
2023-09-27T12:47:06.063Z,36.18
2023-09-27T12:48:09.369Z,36.40
2023-09-27T12:49:11.700Z,36.18
2023-09-27T12:50:13.908Z,35.80
2023-09-27T12:51:17.385Z,36.40
2023-09-27T12:52:19.614Z,37.00
2023-09-27T12:53:24.200Z,36.51
2023-09-27T12:54:27.272Z,36.20
2023-09-27T12:55:29.426Z,36.11
2023-09-27T12:56:32.672Z,35.14
2023-09-27T12:57:34.931Z,34.54
2023-09-27T12:58:38.065Z,35.17
2023-09-27T12:59:40.304Z,35.92
2023-09-27T13:00:44.197Z,36.38
2023-09-27T13:01:46.504Z,36.22
2023-09-27T13:02:49.900Z,36.12
2023-09-27T13:03:52.539Z,35.77
2023-09-27T13:04:55.801Z,34.86
2023-09-27T13:05:58.898Z,35.15
2023-09-27T13:07:02.115Z,35.84
2023-09-27T13:08:05.482Z,35.64
2023-09-27T13:09:10.969Z,35.53
2023-09-27T13:10:13.493Z,35.04
2023-09-27T13:11:16.663Z,34.78
2023-09-27T13:12:19.102Z,34.84
2023-09-27T13:13:22.514Z,33.94
2023-09-27T13:14:24.758Z,33.63
2023-09-27T13:15:28.045Z,33.89
2023-09-27T13:16:30.326Z,34.73
2023-09-27T13:17:33.668Z,34.50
2023-09-27T13:18:35.890Z,34.48
2023-09-27T13:19:39.060Z,33.82
2023-09-27T13:20:41.384Z,34.24
2023-09-27T13:21:44.744Z,33.95
2023-09-27T13:22:48.513Z,34.17
2023-09-27T13:23:51.706Z,34.30
2023-09-27T13:24:55.146Z,34.54
2023-09-27T13:25:58.437Z,33.91
2023-09-27T13:27:00.751Z,33.95
2023-09-27T13:28:04.255Z,33.99
2023-09-27T13:29:06.681Z,33.74
2023-09-27T13:30:18.651Z,33.53
2023-09-27T13:31:35.873Z,33.41
2023-09-27T13:32:38.169Z,33.54
2023-09-27T13:33:43.016Z,33.01
2023-09-27T13:34:48.998Z,32.28
2023-09-27T13:35:52.897Z,31.16
2023-09-27T13:36:55.606Z,30.99
2023-09-27T13:37:58.799Z,31.51
2023-09-27T13:39:01.064Z,31.74
2023-09-27T13:40:06.497Z,31.21
2023-09-27T13:41:09.674Z,31.42
2023-09-27T13:42:11.889Z,31.68
2023-09-27T13:43:16.012Z,31.99
2023-09-27T13:44:18.292Z,32.19
2023-09-27T13:45:21.802Z,31.88
2023-09-27T13:46:24.118Z,31.92
2023-09-27T13:47:26.297Z,32.20
2023-09-27T13:48:29.535Z,32.27